Main page
METAR-TAF:

METAR-TAF

Airports :

Istanbul Atatürk, Turkey

Istanbul Atatürk Airport

latitude: 40-58N, longitude: 028-49E, elevation: 48 m

Current weather observation

The report was made 33 minutes ago, at 21:20 UTC
Wind 6 kt from the West/Southwest
Temperature 17°C
Humidity 59%
Pressure 1015 hPa
Visibility 10 km or more
no clouds below 1500 m and no cumulonimbus

METAR: LTBA 282120Z 24006KT CAVOK 17/09 Q1015 NOSIG RMK RWY17L 22005KT 190V260 RWY05 23005KT 210V270 RWY23 22004KT 190V260

Time: 00:53 (21:53 UTC)

Forecast

The report was made 5 hours and 13 minutes ago, at 16:40 UTC
Forecast valid from 28 at 18 UTC to 29 at 24 UTC
Wind 2 kt from variable directions
Visibility 10 km or more
no clouds below 1500 m and no cumulonimbus

TAF: LTBA 281640Z 2818/2924 VRB02KT CAVOK

Weather observations and forecasts of more than 4000 airports (METAR and TAF reports).

The available stations are represented by yellow and red dots on the map.

Hover mouse over dot to see the name of the station.

Then click to see weather observations and forecasts.

To change the map : click on the green buttons with a black cross to zoom in, on the green button with a dash to zoom out, or on the green arrows for adjacent maps.


METAR-TAF: